createdAt,value
2022-08-05T00:02:27.708Z,2.70
2022-08-05T00:04:56.207Z,2.22
2022-08-05T00:07:58.917Z,4.65
2022-08-05T00:10:10.924Z,4.60
2022-08-05T00:12:48.471Z,3.33
2022-08-05T00:15:58.039Z,2.65
2022-08-05T00:18:21.654Z,3.83
2022-08-05T00:20:50.273Z,3.63
2022-08-05T00:23:17.806Z,4.78
2022-08-05T00:26:04.960Z,2.05
2022-08-05T00:28:31.870Z,3.58
2022-08-05T00:31:04.133Z,2.47
2022-08-05T00:34:54.966Z,3.45
2022-08-05T00:37:10.309Z,2.08
2022-08-05T00:39:13.824Z,4.40
2022-08-05T00:41:51.594Z,3.88
2022-08-05T00:44:23.350Z,2.92
2022-08-05T00:47:03.695Z,4.75
2022-08-05T00:49:32.498Z,3.33
2022-08-05T00:52:00.160Z,8.10
2022-08-05T00:54:28.202Z,3.25
2022-08-05T00:56:57.136Z,3.67
2022-08-05T00:59:24.043Z,5.15
2022-08-05T01:01:51.485Z,2.13
2022-08-05T01:04:20.107Z,2.17
2022-08-05T01:06:53.565Z,2.95
2022-08-05T01:09:22.234Z,3.55
2022-08-05T01:11:52.534Z,3.65
2022-08-05T01:15:04.081Z,3.13
2022-08-05T01:17:40.163Z,3.80
2022-08-05T01:20:31.519Z,5.90
2022-08-05T01:23:23.708Z,4.15
2022-08-05T01:26:08.559Z,2.75
2022-08-05T01:29:05.376Z,4.50
2022-08-05T01:31:49.890Z,3.00
2022-08-05T01:34:26.730Z,2.30
2022-08-05T01:37:20.209Z,4.18
2022-08-05T01:39:58.839Z,2.97
2022-08-05T01:42:27.979Z,8.93
2022-08-05T01:44:59.156Z,5.20
2022-08-05T01:47:30.535Z,3.47
2022-08-05T01:50:15.351Z,2.88
2022-08-05T01:52:45.123Z,3.80
2022-08-05T01:55:20.256Z,3.80
2022-08-05T01:58:10.896Z,4.47
2022-08-05T02:00:38.859Z,3.10
2022-08-05T02:03:24.543Z,3.13
2022-08-05T02:06:01.026Z,4.60
2022-08-05T02:08:31.631Z,5.20
2022-08-05T02:11:11.999Z,3.70
2022-08-05T02:14:02.505Z,4.70
2022-08-05T02:16:42.004Z,3.05
2022-08-05T02:19:34.953Z,2.72
2022-08-05T02:22:08.076Z,2.63
2022-08-05T02:27:10.040Z,4.35
2022-08-05T02:29:58.442Z,6.90
2022-08-05T02:32:29.434Z,2.75
2022-08-05T02:35:09.606Z,4.63
2022-08-05T02:37:43.266Z,3.80
2022-08-05T02:40:17.141Z,3.60
2022-08-05T02:42:52.653Z,4.07
2022-08-05T02:45:24.198Z,4.75
2022-08-05T02:48:07.113Z,4.40
2022-08-05T02:50:46.683Z,2.70
2022-08-05T02:53:16.089Z,4.25
2022-08-05T02:55:52.032Z,5.22
2022-08-05T02:58:23.017Z,2.10
2022-08-05T03:00:56.665Z,3.95
2022-08-05T03:03:23.968Z,2.33
2022-08-05T03:06:56.733Z,4.00
2022-08-05T03:08:42.627Z,4.90
2022-08-05T03:11:55.509Z,3.25
2022-08-05T03:14:13.257Z,5.72
2022-08-05T03:16:40.791Z,8.35
2022-08-05T03:19:17.425Z,3.10
2022-08-05T03:21:55.004Z,3.45
2022-08-05T03:24:29.544Z,6.18
2022-08-05T03:27:01.142Z,3.70
2022-08-05T03:29:44.845Z,5.80
2022-08-05T03:32:16.421Z,2.80
2022-08-05T03:34:50.697Z,4.82
2022-08-05T03:37:18.807Z,3.25
2022-08-05T03:40:01.773Z,5.13
2022-08-05T03:42:32.943Z,4.95
2022-08-05T03:45:21.193Z,4.18
2022-08-05T03:47:50.014Z,3.08
2022-08-05T03:50:16.998Z,3.92
2022-08-05T03:55:07.228Z,5.55
2022-08-05T03:56:30.647Z,5.07
2022-08-05T03:59:06.416Z,3.40
2022-08-05T04:01:39.773Z,4.18
2022-08-05T04:04:10.259Z,5.00
2022-08-05T04:06:38.491Z,5.47
2022-08-05T04:09:15.989Z,3.28
2022-08-05T04:11:53.296Z,3.17
2022-08-05T04:14:30.646Z,3.67
2022-08-05T04:16:58.907Z,4.40
2022-08-05T04:19:25.944Z,3.70
2022-08-05T04:22:10.118Z,3.28
2022-08-05T04:24:43.893Z,5.07
2022-08-05T04:27:15.325Z,5.63
2022-08-05T04:29:42.775Z,7.05
2022-08-05T04:32:10.271Z,5.35
2022-08-05T04:34:43.058Z,4.07
2022-08-05T04:37:10.327Z,4.68
2022-08-05T04:39:37.843Z,6.00
2022-08-05T04:42:06.428Z,5.10
2022-08-05T04:44:33.457Z,4.85
2022-08-05T04:47:09.735Z,3.95
2022-08-05T04:50:02.830Z,4.32
2022-08-05T04:52:28.353Z,4.45
2022-08-05T04:54:56.926Z,5.38
2022-08-05T04:57:28.738Z,4.07
2022-08-05T04:59:57.419Z,6.55
2022-08-05T05:02:41.499Z,4.63
2022-08-05T05:05:26.322Z,3.53
2022-08-05T05:08:00.959Z,3.83
2022-08-05T05:10:33.317Z,4.55
2022-08-05T05:13:01.704Z,6.30
2022-08-05T05:15:56.865Z,5.13
2022-08-05T05:18:31.274Z,4.93
2022-08-05T05:21:01.718Z,5.90
2022-08-05T05:24:01.937Z,5.95
2022-08-05T05:26:15.467Z,6.45
2022-08-05T05:28:44.911Z,6.25
2022-08-05T05:31:12.189Z,3.90
2022-08-05T05:33:58.891Z,4.53
2022-08-05T05:36:28.444Z,5.63
2022-08-05T05:38:57.403Z,5.15
2022-08-05T05:41:24.615Z,3.97
2022-08-05T05:43:56.994Z,4.47
2022-08-05T05:46:25.598Z,4.72
2022-08-05T05:48:52.548Z,6.18
2022-08-05T05:51:24.704Z,4.35
2022-08-05T05:53:58.882Z,4.07
2022-08-05T05:56:31.555Z,5.63
2022-08-05T05:59:06.445Z,4.38
2022-08-05T06:01:39.694Z,6.05
2022-08-05T06:04:12.243Z,3.92
2022-08-05T06:06:42.718Z,7.95
2022-08-05T06:09:16.961Z,7.00
2022-08-05T06:11:59.088Z,8.45
2022-08-05T06:14:28.030Z,3.92
2022-08-05T06:16:56.855Z,2.80
2022-08-05T06:19:34.144Z,4.93
2022-08-05T06:22:06.389Z,3.70
2022-08-05T06:24:34.895Z,6.82
2022-08-05T06:27:04.023Z,5.95
2022-08-05T06:29:49.317Z,4.05
2022-08-05T06:32:25.013Z,6.57
2022-08-05T06:34:56.326Z,4.85
2022-08-05T06:37:57.601Z,4.53
2022-08-05T06:40:12.692Z,7.68
2022-08-05T06:42:40.717Z,6.90
2022-08-05T06:45:09.282Z,6.13
2022-08-05T06:48:44.332Z,5.55
2022-08-05T06:50:25.009Z,5.70
2022-08-05T06:52:58.576Z,6.43
2022-08-05T06:55:31.431Z,6.47
2022-08-05T06:58:29.873Z,6.70
2022-08-05T07:00:51.108Z,6.75
2022-08-05T07:03:18.655Z,4.07
2022-08-05T07:05:46.335Z,6.63
2022-08-05T07:08:13.541Z,8.43
2022-08-05T07:10:53.222Z,4.35
2022-08-05T07:13:56.687Z,4.18
2022-08-05T07:17:57.151Z,4.43
2022-08-05T07:20:16.886Z,5.60
2022-08-05T07:22:21.530Z,6.18
2022-08-05T07:24:58.109Z,6.65
2022-08-05T07:27:27.338Z,4.90
2022-08-05T07:30:23.946Z,8.95
2022-08-05T07:32:55.222Z,5.72
2022-08-05T07:36:02.810Z,5.38
2022-08-05T07:38:12.345Z,5.53
2022-08-05T07:40:55.639Z,6.32
2022-08-05T07:43:28.421Z,6.30
2022-08-05T07:45:57.040Z,8.10
2022-08-05T07:49:00.985Z,3.72
2022-08-05T07:51:23.884Z,8.02
2022-08-05T07:54:01.938Z,6.45
2022-08-05T07:57:01.195Z,6.40
2022-08-05T07:59:15.899Z,6.68
2022-08-05T08:01:52.021Z,7.20
2022-08-05T08:04:37.901Z,5.18
2022-08-05T08:07:07.071Z,6.95
2022-08-05T08:09:34.708Z,4.57
2022-08-05T08:12:09.087Z,4.20
2022-08-05T08:14:38.346Z,5.45
2022-08-05T08:17:10.920Z,4.00
2022-08-05T08:20:21.454Z,5.70
2022-08-05T08:22:32.439Z,5.88
2022-08-05T08:25:03.521Z,4.90
2022-08-05T08:27:44.719Z,9.50
2022-08-05T08:30:30.092Z,5.63
2022-08-05T08:33:04.450Z,5.53
2022-08-05T08:35:34.991Z,5.90
2022-08-05T08:38:08.507Z,5.82
2022-08-05T08:40:39.872Z,7.35
2022-08-05T08:45:20.443Z,5.32
2022-08-05T08:45:55.199Z,6.70
2022-08-05T08:48:59.391Z,4.88
2022-08-05T08:52:02.247Z,7.78
2022-08-05T08:53:56.842Z,6.78
2022-08-05T08:56:26.955Z,6.05
2022-08-05T08:58:54.581Z,6.10
2022-08-05T09:01:21.806Z,6.35
2022-08-05T09:03:54.477Z,5.65
2022-08-05T09:06:28.164Z,6.22
2022-08-05T09:08:59.497Z,4.10
2022-08-05T09:11:51.372Z,7.47
2022-08-05T09:14:57.810Z,7.00
2022-08-05T09:17:05.347Z,5.43
2022-08-05T09:19:55.190Z,4.82
2022-08-05T09:22:31.719Z,8.52
2022-08-05T09:25:13.682Z,5.22
2022-08-05T09:28:04.504Z,5.22
2022-08-05T09:30:34.862Z,5.18
2022-08-05T09:33:02.489Z,10.57
2022-08-05T09:35:31.583Z,5.85
2022-08-05T09:38:11.991Z,6.90
2022-08-05T09:40:51.821Z,6.28
2022-08-05T09:43:40.503Z,5.97
2022-08-05T09:46:30.201Z,4.40
2022-08-05T09:49:07.576Z,4.80
2022-08-05T09:51:49.427Z,5.15
2022-08-05T09:54:29.008Z,4.97
2022-08-05T09:57:01.309Z,4.68
2022-08-05T09:59:29.018Z,5.30
2022-08-05T10:02:02.328Z,4.75
2022-08-05T10:04:38.468Z,4.32
2022-08-05T10:07:20.918Z,6.75
2022-08-05T10:10:14.544Z,5.30
2022-08-05T10:12:50.095Z,4.22
2022-08-05T10:15:23.017Z,4.22
2022-08-05T10:18:07.073Z,3.55
2022-08-05T10:20:36.627Z,5.38
2022-08-05T10:23:05.163Z,6.25
2022-08-05T10:25:49.207Z,9.13
2022-08-05T10:28:29.012Z,5.97
2022-08-05T10:32:54.428Z,6.93
2022-08-05T10:33:44.614Z,6.20
2022-08-05T10:36:11.579Z,6.68
2022-08-05T10:38:44.976Z,6.97
2022-08-05T10:41:44.840Z,3.50
2022-08-05T10:44:18.214Z,5.30
2022-08-05T10:46:56.321Z,4.60
2022-08-05T10:49:26.770Z,3.35
2022-08-05T10:52:02.813Z,5.45
2022-08-05T10:55:01.813Z,3.85
2022-08-05T10:57:31.747Z,4.68
2022-08-05T11:00:23.047Z,5.45
2022-08-05T11:03:25.201Z,3.50
2022-08-05T11:06:08.618Z,3.97
2022-08-05T11:09:17.601Z,4.30
2022-08-05T11:11:53.990Z,4.78
2022-08-05T11:14:57.759Z,3.95
2022-08-05T11:17:57.056Z,4.32
2022-08-05T11:20:39.262Z,5.97
2022-08-05T11:23:33.336Z,6.70
2022-08-05T11:26:28.815Z,4.20
2022-08-05T11:29:11.979Z,4.57
2022-08-05T11:31:54.400Z,4.70
2022-08-05T11:34:47.586Z,3.88
2022-08-05T11:38:30.747Z,5.82
2022-08-05T11:41:00.840Z,4.07
2022-08-05T11:44:04.530Z,4.78
2022-08-05T11:46:32.272Z,4.18
2022-08-05T11:49:01.621Z,5.13
2022-08-05T11:51:43.715Z,4.25
2022-08-05T11:54:33.383Z,4.93
2022-08-05T11:57:07.690Z,5.20
2022-08-05T11:59:50.691Z,3.10
2022-08-05T12:02:30.718Z,5.13
2022-08-05T12:05:00.815Z,6.20
2022-08-05T12:08:07.899Z,3.03
2022-08-05T12:10:24.920Z,3.58
2022-08-05T12:13:27.935Z,3.92
2022-08-05T12:16:14.428Z,4.72
2022-08-05T12:18:42.651Z,4.65
2022-08-05T12:21:24.845Z,4.88
2022-08-05T12:24:08.757Z,5.30
2022-08-05T12:26:44.135Z,4.10
2022-08-05T12:29:16.094Z,5.55
2022-08-05T12:32:01.958Z,6.05
2022-08-05T12:34:32.640Z,5.20
2022-08-05T12:37:07.469Z,5.95
2022-08-05T12:39:38.528Z,4.85
2022-08-05T12:42:17.860Z,6.80
2022-08-05T12:44:44.998Z,6.78
2022-08-05T12:47:17.164Z,4.93
2022-08-05T12:50:03.252Z,6.25
2022-08-05T12:52:38.641Z,6.90
2022-08-05T12:55:26.544Z,4.72
2022-08-05T12:58:38.591Z,4.05
2022-08-05T13:02:00.629Z,4.57
2022-08-05T13:03:42.311Z,4.10
2022-08-05T13:06:17.980Z,4.07
2022-08-05T13:08:51.777Z,3.42
2022-08-05T13:11:47.030Z,4.88
2022-08-05T13:14:36.107Z,3.55
2022-08-05T13:17:31.921Z,6.43
2022-08-05T13:20:19.154Z,4.50
2022-08-05T13:22:49.999Z,5.10
2022-08-05T13:25:18.680Z,8.02
2022-08-05T13:27:57.464Z,4.20
2022-08-05T13:30:33.560Z,3.55
2022-08-05T13:33:02.479Z,4.05
2022-08-05T13:35:43.388Z,4.57
2022-08-05T13:38:28.500Z,5.13
2022-08-05T13:41:03.825Z,4.25
2022-08-05T13:43:44.047Z,5.93
2022-08-05T13:46:14.206Z,4.22
2022-08-05T13:48:57.792Z,3.80
2022-08-05T13:51:36.634Z,5.93
2022-08-05T13:54:12.742Z,2.33
2022-08-05T13:59:24.085Z,2.92
2022-08-05T14:01:56.641Z,3.20
2022-08-05T14:04:56.784Z,3.58
2022-08-05T14:08:00.952Z,3.83
2022-08-05T14:10:30.889Z,3.97
2022-08-05T14:12:59.544Z,6.93
2022-08-05T14:16:05.386Z,6.53
2022-08-05T14:18:18.355Z,3.63
2022-08-05T14:20:48.956Z,5.25
2022-08-05T14:23:24.604Z,5.95
2022-08-05T14:25:58.880Z,3.03
2022-08-05T14:28:29.638Z,2.40
2022-08-05T14:31:01.538Z,4.13
2022-08-05T14:33:56.777Z,3.70
2022-08-05T14:36:21.704Z,6.82
2022-08-05T14:38:49.454Z,10.55
2022-08-05T14:41:17.774Z,6.57
2022-08-05T14:43:59.084Z,4.03
2022-08-05T14:46:30.703Z,3.30
2022-08-05T14:49:06.455Z,2.42
2022-08-05T14:51:38.977Z,3.03
2022-08-05T14:54:27.982Z,3.22
2022-08-05T14:56:57.336Z,4.35
2022-08-05T14:59:24.662Z,4.40
2022-08-05T15:01:51.763Z,5.90
2022-08-05T15:04:22.585Z,4.20
2022-08-05T15:06:53.122Z,3.45
2022-08-05T15:09:50.633Z,4.95
2022-08-05T15:12:09.504Z,3.28
2022-08-05T15:14:48.019Z,4.43
2022-08-05T15:17:46.651Z,5.30
2022-08-05T15:20:18.388Z,5.45
2022-08-05T15:22:54.249Z,6.70
2022-08-05T15:25:52.869Z,5.55
2022-08-05T15:28:14.294Z,5.90
2022-08-05T15:30:43.348Z,9.25
2022-08-05T15:33:10.512Z,7.78
2022-08-05T15:35:45.166Z,7.07
2022-08-05T15:38:35.511Z,5.47
2022-08-05T15:41:22.758Z,8.07
2022-08-05T15:43:47.151Z,4.05
2022-08-05T15:46:14.484Z,4.95
2022-08-05T15:48:51.927Z,5.13
2022-08-05T15:52:13.465Z,3.60
2022-08-05T15:54:17.539Z,4.28
2022-08-05T15:56:44.440Z,4.88
2022-08-05T15:59:21.751Z,4.55
2022-08-05T16:01:52.901Z,4.10
2022-08-05T16:04:25.575Z,3.00
2022-08-05T16:06:55.991Z,3.33
2022-08-05T16:09:24.458Z,3.58
2022-08-05T16:11:53.753Z,1.90
2022-08-05T16:14:21.800Z,3.45
2022-08-05T16:16:49.777Z,3.33
2022-08-05T16:19:25.660Z,1.65
2022-08-05T16:22:03.845Z,3.15
2022-08-05T16:24:40.608Z,3.13
2022-08-05T16:27:09.055Z,2.53
2022-08-05T16:29:37.683Z,1.67
2022-08-05T16:32:06.546Z,1.88
2022-08-05T16:34:36.815Z,4.38
2022-08-05T16:38:02.012Z,4.30
2022-08-05T16:40:05.748Z,2.47
2022-08-05T16:42:34.740Z,2.72
2022-08-05T16:45:02.061Z,3.60
2022-08-05T16:47:53.577Z,4.65
2022-08-05T16:50:23.317Z,5.10
2022-08-05T16:52:50.546Z,4.80
2022-08-05T16:55:17.439Z,4.25
2022-08-05T16:57:53.715Z,5.80
2022-08-05T17:00:34.681Z,6.93
2022-08-05T17:03:15.429Z,5.97
2022-08-05T17:05:53.741Z,5.00
2022-08-05T17:08:35.986Z,7.65
2022-08-05T17:11:16.478Z,6.07
2022-08-05T17:13:44.572Z,3.30
2022-08-05T17:16:30.258Z,4.95
2022-08-05T17:18:59.647Z,4.65
2022-08-05T17:21:36.150Z,7.85
2022-08-05T17:24:20.478Z,5.25
2022-08-05T17:26:52.697Z,7.00
2022-08-05T17:29:22.836Z,7.50
2022-08-05T17:32:06.779Z,11.77
2022-08-05T17:34:35.436Z,7.72
2022-08-05T17:37:02.370Z,12.55
2022-08-05T17:39:34.382Z,8.90
2022-08-05T17:42:17.907Z,12.35
2022-08-05T17:44:50.230Z,14.80
2022-08-05T17:47:23.015Z,16.35
2022-08-05T17:50:00.157Z,16.40
2022-08-05T17:52:32.283Z,12.77
2022-08-05T17:54:59.682Z,9.82
2022-08-05T17:57:27.824Z,11.45
2022-08-05T18:00:05.245Z,13.20
2022-08-05T18:02:33.273Z,13.40
2022-08-05T18:05:06.421Z,7.82
2022-08-05T18:07:41.781Z,9.30
2022-08-05T18:10:11.429Z,9.27
2022-08-05T18:12:40.864Z,8.95
2022-08-05T18:15:08.807Z,9.50
2022-08-05T18:18:01.458Z,11.20
2022-08-05T18:20:29.481Z,8.35
2022-08-05T18:23:00.581Z,8.73
2022-08-05T18:25:38.885Z,8.50
2022-08-05T18:28:06.786Z,7.25
2022-08-05T18:30:34.506Z,5.85
2022-08-05T18:33:01.895Z,4.40
2022-08-05T18:36:01.371Z,5.00
2022-08-05T18:38:19.322Z,4.13
2022-08-05T18:41:58.150Z,4.32
2022-08-05T18:43:42.954Z,3.38
2022-08-05T18:46:15.240Z,4.63
2022-08-05T18:48:42.243Z,3.45
2022-08-05T18:52:05.455Z,2.30
2022-08-05T18:54:15.597Z,4.90
2022-08-05T18:56:51.139Z,4.18
2022-08-05T18:59:50.635Z,4.45
2022-08-05T19:02:27.115Z,4.40
2022-08-05T19:05:01.497Z,6.35
2022-08-05T19:07:29.717Z,2.78
2022-08-05T19:10:11.246Z,5.53
2022-08-05T19:12:38.987Z,4.22
2022-08-05T19:15:06.521Z,4.43
2022-08-05T19:18:08.476Z,2.00
2022-08-05T19:20:41.457Z,2.92
2022-08-05T19:24:04.561Z,6.40
2022-08-05T19:26:01.643Z,2.47
2022-08-05T19:28:30.891Z,5.28
2022-08-05T19:30:57.974Z,3.22
2022-08-05T19:33:35.272Z,1.80
2022-08-05T19:36:06.982Z,3.20
2022-08-05T19:38:37.396Z,3.67
2022-08-05T19:41:07.281Z,3.22
2022-08-05T19:44:06.629Z,3.92
2022-08-05T19:46:29.391Z,3.42
2022-08-05T19:49:03.246Z,2.90
2022-08-05T19:52:08.741Z,2.40
2022-08-05T19:54:25.594Z,2.75
2022-08-05T19:56:59.085Z,6.57
2022-08-05T20:00:00.766Z,3.03
2022-08-05T20:02:14.906Z,2.70
2022-08-05T20:04:46.061Z,4.47
2022-08-05T20:07:14.356Z,3.65
2022-08-05T20:09:54.518Z,3.80
2022-08-05T20:12:23.736Z,3.33
2022-08-05T20:14:52.075Z,2.38
2022-08-05T20:17:23.555Z,2.97
2022-08-05T20:19:53.445Z,3.20
2022-08-05T20:22:26.754Z,4.15
2022-08-05T20:24:55.403Z,3.53
2022-08-05T20:27:26.759Z,6.22
2022-08-05T20:29:58.196Z,3.55
2022-08-05T20:32:26.957Z,3.58
2022-08-05T20:34:54.293Z,2.95
2022-08-05T20:38:04.937Z,3.67
2022-08-05T20:40:09.138Z,2.60
2022-08-05T20:42:36.221Z,2.30
2022-08-05T20:45:05.233Z,3.78
2022-08-05T20:47:32.818Z,3.60
2022-08-05T20:50:02.090Z,5.45
2022-08-05T20:52:29.990Z,3.75
2022-08-05T20:54:59.144Z,3.67
2022-08-05T20:57:43.543Z,3.97
2022-08-05T21:00:20.876Z,4.43
2022-08-05T21:03:06.325Z,3.08
2022-08-05T21:05:48.184Z,3.17
2022-08-05T21:08:26.542Z,4.38
2022-08-05T21:10:58.298Z,4.25
2022-08-05T21:13:48.200Z,5.00
2022-08-05T21:16:13.617Z,5.45
2022-08-05T21:18:45.010Z,3.05
2022-08-05T21:21:12.308Z,2.90
2022-08-05T21:23:39.265Z,3.55
2022-08-05T21:26:08.181Z,1.88
2022-08-05T21:28:47.906Z,7.10
2022-08-05T21:31:18.324Z,5.63
2022-08-05T21:33:47.774Z,2.90
2022-08-05T21:36:19.139Z,3.97
2022-08-05T21:38:54.523Z,3.60
2022-08-05T21:41:21.649Z,3.92
2022-08-05T21:43:50.994Z,6.00
2022-08-05T21:46:29.011Z,2.80
2022-08-05T21:48:56.611Z,4.13
2022-08-05T21:51:25.185Z,4.30
2022-08-05T21:54:10.507Z,7.32
2022-08-05T21:56:44.731Z,5.88
2022-08-05T21:59:24.113Z,5.72
2022-08-05T22:01:54.580Z,3.42
2022-08-05T22:04:25.499Z,4.03
2022-08-05T22:06:52.943Z,4.22
2022-08-05T22:09:21.088Z,4.47
2022-08-05T22:11:49.175Z,3.50
2022-08-05T22:14:35.064Z,3.80
2022-08-05T22:17:07.132Z,2.00
2022-08-05T22:20:01.317Z,3.03
2022-08-05T22:22:27.967Z,2.50
2022-08-05T22:25:27.572Z,3.70
2022-08-05T22:28:05.061Z,8.50
2022-08-05T22:30:44.293Z,2.97
2022-08-05T22:33:55.827Z,2.70
2022-08-05T22:36:14.290Z,3.08
2022-08-05T22:38:42.822Z,4.75
2022-08-05T22:41:10.349Z,6.68
2022-08-05T22:43:37.974Z,2.83
2022-08-05T22:46:12.249Z,3.55
2022-08-05T22:48:47.765Z,3.65
2022-08-05T22:51:15.757Z,2.75
2022-08-05T22:53:50.106Z,5.95
2022-08-05T22:56:18.003Z,3.60
2022-08-05T22:58:58.396Z,3.85
2022-08-05T23:01:50.922Z,3.38
2022-08-05T23:04:14.018Z,3.75
2022-08-05T23:06:41.579Z,3.75
2022-08-05T23:09:26.921Z,2.92
2022-08-05T23:11:55.054Z,3.40
2022-08-05T23:14:22.441Z,4.22
2022-08-05T23:17:08.127Z,3.97
2022-08-05T23:19:41.944Z,3.20
2022-08-05T23:22:19.303Z,5.03
2022-08-05T23:24:54.951Z,5.03
2022-08-05T23:27:22.600Z,5.82
2022-08-05T23:29:50.587Z,5.00
2022-08-05T23:32:17.667Z,4.78
2022-08-05T23:34:50.832Z,3.72
2022-08-05T23:37:18.393Z,3.97
2022-08-05T23:39:54.329Z,4.80
2022-08-05T23:42:23.464Z,5.78
2022-08-05T23:44:55.705Z,3.17
2022-08-05T23:47:24.837Z,5.47
2022-08-05T23:49:52.324Z,3.60
2022-08-05T23:52:27.486Z,3.28
2022-08-05T23:54:58.878Z,4.88
2022-08-05T23:57:28.044Z,5.57
